Time;durP1;ratioP1;P1;durP2;ratioP2;P2;SDS_P1;SDS_P2;PMS_P1;PMS_P2;Temp;Humidity;BMP_temperature;BMP_pressure;BME280_temperature;BME280_humidity;BME280_pressure;Samples;Min_cycle;Max_cycle;Signal;HPM_P1;HPM_P2
2021/04/20 00:00:01;;;;;;;24.15;12.88;;;7.70;99.90;;;;;;5048727;28;20043;-73
2021/04/20 00:02:27;;;;;;;24.58;12.32;;;7.70;99.90;;;;;;5041318;28;20029;-73
2021/04/20 00:04:53;;;;;;;22.73;11.55;;;7.70;99.90;;;;;;5041650;28;20021;-73
2021/04/20 00:07:19;;;;;;;23.48;12.35;;;7.70;99.90;;;;;;5050908;28;20032;-73
2021/04/20 00:09:45;;;;;;;20.77;10.45;;;7.70;99.90;;;;;;5052149;28;20037;-73
2021/04/20 00:12:11;;;;;;;17.20;9.63;;;7.60;99.90;;;;;;5051392;28;20233;-73
2021/04/20 00:14:37;;;;;;;20.13;9.65;;;7.60;99.90;;;;;;5052029;28;20021;-73
2021/04/20 00:17:04;;;;;;;15.57;9.75;;;7.60;99.90;;;;;;5050744;28;20029;-73
2021/04/20 00:19:30;;;;;;;20.08;10.27;;;7.60;99.90;;;;;;5051903;28;20052;-73
2021/04/20 00:21:56;;;;;;;16.13;8.77;;;7.50;99.90;;;;;;5051238;28;20424;-73
2021/04/20 00:24:21;;;;;;;18.95;9.57;;;7.40;99.90;;;;;;5051167;28;20108;-73
2021/04/20 00:26:47;;;;;;;18.55;9.18;;;7.40;99.90;;;;;;5050084;28;20036;-73
2021/04/20 00:29:13;;;;;;;19.00;10.10;;;7.30;99.90;;;;;;5050780;28;20040;-73
2021/04/20 00:31:38;;;;;;;16.90;9.15;;;7.20;99.90;;;;;;5049940;28;20033;-72
2021/04/20 00:34:05;;;;;;;20.40;10.82;;;7.10;99.90;;;;;;5051923;28;20555;-73
2021/04/20 00:36:31;;;;;;;19.80;10.88;;;7.10;99.90;;;;;;5049868;28;20495;-73
2021/04/20 00:38:57;;;;;;;21.20;11.07;;;7.10;99.90;;;;;;5046175;28;20045;-73
2021/04/20 00:41:24;;;;;;;17.25;10.13;;;7.00;99.90;;;;;;5049831;28;20025;-73
2021/04/20 00:43:50;;;;;;;20.58;10.98;;;7.00;99.90;;;;;;5048354;28;20040;-73
2021/04/20 00:46:19;;;;;;;19.05;10.32;;;6.90;99.90;;;;;;5050920;28;20393;-73
2021/04/20 00:48:46;;;;;;;20.75;11.15;;;6.90;99.90;;;;;;5051596;28;20048;-73
2021/04/20 00:51:12;;;;;;;19.17;10.88;;;6.80;99.90;;;;;;5032940;28;20131;-73
2021/04/20 00:53:39;;;;;;;19.23;10.88;;;6.80;99.90;;;;;;5051380;28;20496;-73
2021/04/20 00:56:05;;;;;;;22.85;12.13;;;6.70;99.90;;;;;;5050186;28;20071;-73
2021/04/20 00:58:31;;;;;;;21.08;11.65;;;6.70;99.90;;;;;;5049164;28;20033;-73
2021/04/20 01:00:57;;;;;;;25.77;12.65;;;6.60;99.90;;;;;;5046638;28;20056;-73
2021/04/20 01:03:23;;;;;;;22.83;12.85;;;6.60;99.90;;;;;;5048523;28;20033;-73
2021/04/20 01:05:50;;;;;;;30.23;13.55;;;6.60;99.90;;;;;;5051154;28;20051;-73
2021/04/20 01:08:17;;;;;;;22.63;12.98;;;6.60;99.90;;;;;;5049651;28;20025;-73
2021/04/20 01:10:46;;;;;;;26.15;13.00;;;6.50;99.90;;;;;;5050345;28;20028;-73
2021/04/20 01:13:13;;;;;;;26.58;13.35;;;6.50;99.90;;;;;;5051075;28;20043;-73
2021/04/20 01:15:43;;;;;;;23.90;13.82;;;6.50;99.90;;;;;;5050928;28;20067;-73
2021/04/20 01:18:10;;;;;;;27.75;14.50;;;6.50;99.90;;;;;;5050533;28;20508;-73
2021/04/20 01:20:36;;;;;;;29.63;14.10;;;6.40;99.90;;;;;;5050317;28;20075;-73
2021/04/20 01:23:03;;;;;;;31.05;13.90;;;6.40;99.90;;;;;;5050881;28;20035;-73
2021/04/20 01:25:29;;;;;;;27.48;13.73;;;6.40;99.90;;;;;;5049073;28;20025;-73
2021/04/20 01:27:55;;;;;;;27.83;13.43;;;6.40;99.90;;;;;;5050080;28;20431;-73
2021/04/20 01:30:21;;;;;;;26.90;13.93;;;6.30;99.90;;;;;;5050566;28;20067;-73
2021/04/20 01:32:46;;;;;;;26.73;13.48;;;6.30;99.90;;;;;;5050598;28;20487;-73
2021/04/20 01:35:13;;;;;;;30.98;15.07;;;6.30;99.90;;;;;;5050683;28;20037;-73
2021/04/20 01:37:40;;;;;;;26.63;14.70;;;6.20;99.90;;;;;;5049006;28;20068;-73
2021/04/20 01:40:07;;;;;;;27.08;14.48;;;6.20;99.90;;;;;;5050884;28;20031;-73
2021/04/20 01:42:33;;;;;;;31.30;14.85;;;6.20;99.90;;;;;;5043516;28;20056;-73
2021/04/20 01:44:59;;;;;;;29.50;14.45;;;6.20;99.90;;;;;;5029642;28;20547;-73
2021/04/20 01:47:26;;;;;;;30.55;14.23;;;6.10;99.90;;;;;;5028806;28;20082;-73
2021/04/20 01:49:53;;;;;;;27.75;14.70;;;6.10;99.90;;;;;;5029288;28;20037;-73
2021/04/20 01:52:19;;;;;;;33.22;15.43;;;6.10;99.90;;;;;;5029824;28;20037;-73
2021/04/20 01:54:45;;;;;;;31.23;16.35;;;6.10;99.90;;;;;;5030866;28;20031;-74
2021/04/20 01:57:12;;;;;;;35.25;15.27;;;6.10;99.90;;;;;;5029972;28;20122;-73
2021/04/20 01:59:37;;;;;;;30.42;15.40;;;6.20;99.90;;;;;;5030608;28;20025;-72
2021/04/20 02:02:03;;;;;;;32.63;15.88;;;6.20;99.90;;;;;;5029925;28;20029;-73
2021/04/20 02:04:30;;;;;;;28.73;15.38;;;6.10;99.90;;;;;;5031046;28;20476;-73
2021/04/20 02:06:56;;;;;;;30.30;15.70;;;6.10;99.90;;;;;;5029941;28;20183;-72
2021/04/20 02:09:21;;;;;;;29.58;15.45;;;6.20;99.90;;;;;;5031635;28;20108;-73
2021/04/20 02:11:47;;;;;;;30.73;15.77;;;6.10;99.90;;;;;;5044607;28;20038;-73
2021/04/20 02:14:13;;;;;;;30.27;15.00;;;6.10;99.90;;;;;;5030650;28;20033;-73
2021/04/20 02:16:41;;;;;;;29.73;15.00;;;6.10;99.90;;;;;;5029823;28;20091;-73
2021/04/20 02:19:07;;;;;;;29.02;14.35;;;6.10;99.90;;;;;;5045785;28;20029;-73
2021/04/20 02:21:35;;;;;;;31.60;15.48;;;6.10;99.90;;;;;;5028441;28;20034;-73
2021/04/20 02:24:01;;;;;;;27.40;14.55;;;6.00;99.90;;;;;;5030481;28;20111;-73
2021/04/20 02:26:32;;;;;;;27.90;13.55;;;6.00;99.90;;;;;;5037050;28;20489;-73
2021/04/20 02:29:02;;;;;;;27.10;13.93;;;5.90;99.90;;;;;;5049117;28;20021;-73
2021/04/20 02:31:31;;;;;;;29.48;14.25;;;5.90;99.90;;;;;;5049716;28;20670;-73
2021/04/20 02:33:58;;;;;;;30.52;14.68;;;5.80;99.90;;;;;;5050192;28;20033;-73
2021/04/20 02:36:24;;;;;;;27.77;14.43;;;5.70;99.90;;;;;;5049530;28;20025;-73
2021/04/20 02:38:50;;;;;;;28.15;14.98;;;5.70;99.90;;;;;;5048884;28;20083;-73
2021/04/20 02:41:17;;;;;;;27.42;13.85;;;5.60;99.90;;;;;;5049114;28;20025;-73
2021/04/20 02:43:44;;;;;;;24.42;12.07;;;5.60;99.90;;;;;;5045139;28;20029;-73
2021/04/20 02:46:13;;;;;;;23.95;11.10;;;5.50;99.90;;;;;;5050232;28;20066;-73
2021/04/20 02:48:39;;;;;;;28.77;14.38;;;5.50;99.90;;;;;;5052714;28;20029;-73
2021/04/20 02:51:11;;;;;;;27.90;14.63;;;5.50;99.90;;;;;;5052718;28;20036;-73
2021/04/20 02:53:38;;;;;;;31.33;14.48;;;5.40;99.90;;;;;;5053857;28;20082;-73
2021/04/20 02:56:04;;;;;;;32.92;15.00;;;5.40;99.90;;;;;;5053655;28;20037;-73
2021/04/20 02:58:30;;;;;;;28.35;14.52;;;5.30;99.90;;;;;;5053479;28;20037;-73
2021/04/20 03:01:25;;;;;;;32.38;15.27;;;5.30;99.90;;;;;;5051892;28;20029;-72
2021/04/20 03:03:51;;;;;;;28.02;14.48;;;5.20;99.90;;;;;;5053783;28;20036;-73
2021/04/20 03:06:18;;;;;;;29.48;13.52;;;5.20;99.90;;;;;;5053061;28;20029;-73
2021/04/20 03:08:44;;;;;;;22.45;12.02;;;5.20;99.90;;;;;;5048820;28;20013;-73
2021/04/20 03:11:17;;;;;;;21.35;11.13;;;5.10;99.90;;;;;;5052078;28;20124;-73
2021/04/20 03:13:45;;;;;;;25.45;13.55;;;5.10;99.90;;;;;;5053373;28;20061;-73
2021/04/20 03:16:13;;;;;;;24.85;13.10;;;5.00;99.90;;;;;;5052785;28;20502;-73
2021/04/20 03:18:39;;;;;;;32.78;15.95;;;5.00;99.90;;;;;;5034999;28;20074;-73
2021/04/20 03:21:07;;;;;;;31.42;14.70;;;4.90;99.90;;;;;;5052272;28;20029;-73
2021/04/20 03:23:33;;;;;;;29.27;14.70;;;4.90;99.90;;;;;;5052745;28;20052;-73
2021/04/20 03:26:00;;;;;;;30.20;14.43;;;4.90;99.90;;;;;;5053082;28;20037;-72
2021/04/20 03:28:26;;;;;;;28.83;15.00;;;4.80;99.90;;;;;;5052866;28;20029;-73
2021/04/20 03:30:54;;;;;;;24.40;13.18;;;4.80;99.90;;;;;;5052410;28;20037;-73
2021/04/20 03:33:37;;;;;;;26.95;14.05;;;4.70;99.90;;;;;;5052054;28;20025;-73
2021/04/20 03:36:12;;;;;;;28.17;14.55;;;4.70;99.90;;;;;;5051822;28;20040;-73
2021/04/20 03:38:56;;;;;;;28.23;13.87;;;4.60;99.90;;;;;;5053291;28;20103;-73
2021/04/20 03:41:32;;;;;;;34.08;15.05;;;4.60;99.90;;;;;;5050761;28;20036;-73
2021/04/20 03:43:59;;;;;;;;;;;4.50;99.90;;;;;;5052457;28;20025;-73
2021/04/20 03:46:33;;;;;;;32.92;15.68;;;4.50;99.90;;;;;;5052198;28;19909;-73
2021/04/20 03:49:04;;;;;;;35.20;16.30;;;4.40;99.90;;;;;;5052790;28;20021;-73
2021/04/20 03:51:32;;;;;;;36.40;16.80;;;4.40;99.90;;;;;;5034398;28;20472;-73
2021/04/20 03:54:07;;;;;;;37.85;17.58;;;4.40;99.90;;;;;;5052633;28;20037;-73
2021/04/20 03:56:33;;;;;;;33.92;15.48;;;4.40;99.90;;;;;;5050967;28;20071;-73
2021/04/20 03:59:02;;;;;;;42.67;16.60;;;4.40;99.90;;;;;;5050263;28;20450;-73
2021/04/20 04:01:37;;;;;;;32.53;16.40;;;4.30;99.90;;;;;;5050768;28;20065;-73
2021/04/20 04:04:07;;;;;;;33.67;16.48;;;4.30;99.90;;;;;;5052699;28;20072;-73
2021/04/20 04:06:35;;;;;;;34.63;16.88;;;4.30;99.90;;;;;;5051625;28;20029;-73
2021/04/20 04:09:02;;;;;;;37.75;16.17;;;4.30;99.90;;;;;;5052391;28;20029;-73
2021/04/20 04:11:32;;;;;;;36.85;16.73;;;4.30;99.90;;;;;;5046755;28;20029;-73
2021/04/20 04:14:00;;;;;;;36.45;17.30;;;4.30;99.90;;;;;;5014618;28;20409;-73
2021/04/20 04:16:27;;;;;;;39.15;18.42;;;4.30;99.90;;;;;;5046671;28;20030;-73
2021/04/20 04:18:54;;;;;;;35.60;17.02;;;4.30;99.90;;;;;;5030738;28;20468;-73
2021/04/20 04:21:25;;;;;;;37.53;15.95;;;4.30;99.90;;;;;;5031430;28;20161;-73
2021/04/20 04:23:54;;;;;;;35.00;16.63;;;4.30;99.90;;;;;;5032206;28;20033;-73
2021/04/20 04:26:28;;;;;;;31.25;14.68;;;4.30;99.90;;;;;;5032713;28;20029;-73
2021/04/20 04:28:57;;;;;;;28.33;13.60;;;4.20;99.90;;;;;;5050601;28;20439;-73
2021/04/20 04:31:24;;;;;;;26.55;13.50;;;4.20;99.90;;;;;;5031010;28;20044;-73
2021/04/20 04:33:51;;;;;;;26.45;13.15;;;4.20;99.90;;;;;;5031939;28;20385;-73
2021/04/20 04:36:18;;;;;;;29.33;14.23;;;4.20;99.90;;;;;;5031111;28;20522;-73
2021/04/20 04:38:45;;;;;;;27.35;13.75;;;4.20;99.90;;;;;;5031785;28;20033;-73
2021/04/20 04:41:11;;;;;;;26.77;13.05;;;4.20;99.90;;;;;;5031045;28;20064;-73
2021/04/20 04:43:41;;;;;;;26.50;12.43;;;4.20;99.90;;;;;;5029624;28;20092;-73
2021/04/20 04:46:07;;;;;;;29.92;13.50;;;4.30;99.90;;;;;;5030119;28;20485;-72
2021/04/20 04:48:35;;;;;;;28.13;14.43;;;4.20;99.90;;;;;;5046709;28;20044;-73
2021/04/20 04:51:02;;;;;;;29.33;14.25;;;4.20;99.90;;;;;;5036967;28;20444;-73
2021/04/20 04:53:30;;;;;;;35.50;15.90;;;4.20;99.90;;;;;;5031446;28;20833;-73
2021/04/20 04:56:03;;;;;;;37.67;16.83;;;4.10;99.90;;;;;;5049787;28;20701;-73
2021/04/20 04:58:31;;;;;;;32.38;14.43;;;4.20;99.90;;;;;;5043234;28;20056;-73
2021/04/20 05:00:58;;;;;;;31.92;15.30;;;4.30;99.90;;;;;;5049443;28;20029;-73
2021/04/20 05:03:24;;;;;;;30.55;14.52;;;4.40;99.90;;;;;;5051354;28;20552;-73
2021/04/20 05:05:55;;;;;;;28.20;13.70;;;4.40;99.90;;;;;;5049766;28;20396;-73
2021/04/20 05:08:21;;;;;;;33.35;16.27;;;4.50;99.90;;;;;;5050091;28;20625;-73
2021/04/20 05:10:48;;;;;;;34.13;15.23;;;4.70;99.90;;;;;;5048648;28;20040;-73
2021/04/20 05:13:13;;;;;;;34.67;16.17;;;4.80;99.90;;;;;;5046895;28;20392;-73
2021/04/20 05:15:39;;;;;;;34.90;17.05;;;5.00;99.90;;;;;;5044684;28;20029;-72
2021/04/20 05:18:12;;;;;;;37.10;17.00;;;5.20;99.90;;;;;;5027271;28;20037;-73
2021/04/20 05:20:41;;;;;;;36.55;17.55;;;5.40;99.90;;;;;;5049975;28;20037;-73
2021/04/20 05:23:07;;;;;;;40.55;19.98;;;5.60;99.90;;;;;;5050729;28;20503;-73
2021/04/20 05:25:33;;;;;;;40.08;19.00;;;5.80;99.90;;;;;;5050075;28;20021;-73
2021/04/20 05:27:59;;;;;;;38.13;19.35;;;5.90;99.90;;;;;;5049883;28;20029;-73
2021/04/20 05:30:26;;;;;;;44.63;20.38;;;6.10;99.90;;;;;;5050392;28;20036;-73
2021/04/20 05:32:53;;;;;;;37.63;19.85;;;6.20;99.90;;;;;;5049389;28;20041;-73
2021/04/20 05:35:22;;;;;;;40.15;19.52;;;6.30;99.90;;;;;;5050602;28;20025;-73
2021/04/20 05:37:49;;;;;;;41.97;18.60;;;6.50;99.90;;;;;;5049848;28;20048;-73
2021/04/20 05:40:26;;;;;;;38.10;19.27;;;6.70;99.90;;;;;;5049056;28;20079;-72
2021/04/20 05:42:56;;;;;;;45.10;20.90;;;7.00;99.90;;;;;;5050392;28;20053;-73
2021/04/20 05:45:23;;;;;;;41.17;20.58;;;7.40;99.90;;;;;;5049474;28;20102;-73
2021/04/20 05:47:51;;;;;;;42.45;20.85;;;7.70;99.90;;;;;;5049318;28;20036;-73
2021/04/20 05:50:27;;;;;;;42.47;20.05;;;8.10;99.90;;;;;;5047050;28;20029;-73
2021/04/20 05:52:54;;;;;;;47.00;20.98;;;8.50;99.90;;;;;;5047656;28;20083;-73
2021/04/20 05:55:19;;;;;;;32.15;15.73;;;9.00;99.90;;;;;;5050023;28;20037;-73
2021/04/20 05:57:47;;;;;;;28.80;14.18;;;9.30;99.90;;;;;;5048066;28;20048;-73
2021/04/20 06:00:14;;;;;;;37.40;16.95;;;9.60;99.90;;;;;;5049972;28;20025;-73
2021/04/20 06:02:42;;;;;;;40.00;18.98;;;10.00;99.90;;;;;;5049394;28;20108;-73
2021/04/20 06:05:12;;;;;;;47.55;20.42;;;10.30;99.90;;;;;;5049538;28;20108;-73
2021/04/20 06:07:43;;;;;;;41.10;20.38;;;10.60;99.90;;;;;;5048059;28;20021;-73
2021/04/20 06:10:09;;;;;;;41.70;19.05;;;10.80;99.90;;;;;;5044591;28;20028;-73
2021/04/20 06:12:39;;;;;;;40.22;19.73;;;10.90;99.90;;;;;;5045637;28;20140;-73
2021/04/20 06:15:07;;;;;;;37.92;18.55;;;11.10;99.90;;;;;;5049638;28;20689;-73
2021/04/20 06:17:34;;;;;;;40.70;19.27;;;11.30;99.90;;;;;;5048620;28;20079;-73
2021/04/20 06:20:02;;;;;;;37.95;18.48;;;11.60;99.90;;;;;;5049257;28;20041;-73
2021/04/20 06:22:27;;;;;;;37.40;18.35;;;11.70;99.90;;;;;;5051706;28;20033;-73
2021/04/20 06:24:54;;;;;;;38.05;18.30;;;11.60;99.90;;;;;;5053794;28;20029;-73
2021/04/20 06:27:20;;;;;;;37.85;18.20;;;11.70;99.90;;;;;;5046587;28;20033;-72
2021/04/20 06:29:45;;;;;;;38.13;18.27;;;11.50;99.90;;;;;;5049966;28;20032;-73
2021/04/20 06:32:12;;;;;;;36.05;18.13;;;11.20;99.90;;;;;;5048449;28;20573;-73
2021/04/20 06:34:38;;;;;;;37.78;18.38;;;11.10;99.90;;;;;;5049530;28;20037;-73
2021/04/20 06:37:09;;;;;;;39.65;18.85;;;11.10;99.90;;;;;;5047595;28;20044;-73
2021/04/20 06:39:38;;;;;;;40.00;19.27;;;11.20;99.90;;;;;;5048255;28;20128;-72
2021/04/20 06:42:10;;;;;;;39.47;17.60;;;11.50;99.90;;;;;;5049691;28;20029;-73
2021/04/20 06:44:41;;;;;;;38.25;18.65;;;11.80;99.90;;;;;;5051431;28;20017;-73
2021/04/20 06:47:18;;;;;;;39.85;18.45;;;12.00;99.90;;;;;;5050215;28;20025;-73
2021/04/20 06:49:50;;;;;;;36.13;17.60;;;12.10;99.90;;;;;;5049010;28;20032;-73
2021/04/20 06:52:28;;;;;;;33.58;16.98;;;12.30;99.90;;;;;;5048984;28;20033;-73
2021/04/20 06:55:08;;;;;;;34.25;16.88;;;12.30;99.90;;;;;;5064455;28;20053;-73
2021/04/20 06:58:13;;;;;;;31.70;16.13;;;12.20;99.90;;;;;;5045887;28;20037;-73
2021/04/20 07:00:46;;;;;;;34.03;17.52;;;12.10;99.90;;;;;;5048413;28;20072;-73
2021/04/20 07:03:37;;;;;;;35.15;16.75;;;12.30;99.90;;;;;;5045975;28;20029;-73
2021/04/20 07:06:22;;;;;;;35.20;16.83;;;12.60;99.90;;;;;;5047838;28;20032;-73
2021/04/20 07:09:11;;;;;;;29.05;15.13;;;12.90;99.90;;;;;;5050055;28;20029;-73
2021/04/20 07:11:45;;;;;;;33.15;16.80;;;13.40;99.90;;;;;;5047464;28;20025;-73
2021/04/20 07:14:23;;;;;;;33.65;16.55;;;14.10;99.90;;;;;;5051392;28;20031;-73
2021/04/20 07:17:04;;;;;;;32.15;16.40;;;14.80;99.90;;;;;;5042659;28;20080;-72
2021/04/20 07:19:56;;;;;;;27.35;15.80;;;15.70;99.90;;;;;;5051584;28;20032;-73
2021/04/20 07:23:07;;;;;;;27.90;15.68;;;15.90;99.90;;;;;;5051895;28;20017;-73
2021/04/20 07:26:00;;;;;;;28.17;15.10;;;16.40;99.90;;;;;;5034405;28;20045;-73
2021/04/20 07:29:03;;;;;;;29.45;15.32;;;16.90;99.90;;;;;;5047206;28;20021;-73
2021/04/20 07:31:53;;;;;;;29.52;16.10;;;17.50;99.90;;;;;;5047810;28;20167;-73
2021/04/20 07:34:41;;;;;;;28.50;15.45;;;17.70;98.60;;;;;;5046422;28;20025;-73
2021/04/20 07:37:34;;;;;;;27.25;14.77;;;17.50;95.90;;;;;;5040185;28;20092;-73
2021/04/20 07:40:37;;;;;;;27.92;15.00;;;17.50;94.90;;;;;;5046000;28;20025;-73
2021/04/20 07:43:28;;;;;;;30.48;15.73;;;17.30;93.90;;;;;;5045871;28;20361;-73
2021/04/20 07:45:53;;;;;;;30.33;15.93;;;17.50;95.90;;;;;;5048606;28;20016;-73
2021/04/20 07:48:30;;;;;;;24.23;13.73;;;17.70;95.60;;;;;;5047917;28;20388;-73
2021/04/20 07:51:03;;;;;;;28.80;16.75;;;18.00;95.60;;;;;;5044570;28;20090;-74
2021/04/20 07:53:43;;;;;;;27.70;15.63;;;18.40;94.50;;;;;;5048011;28;20025;-73
2021/04/20 07:56:21;;;;;;;27.90;16.42;;;18.70;87.70;;;;;;5048376;28;20040;-72
2021/04/20 07:58:50;;;;;;;30.65;17.90;;;17.80;84.60;;;;;;5050512;28;20037;-72
2021/04/20 08:01:59;;;;;;;29.45;16.35;;;17.10;89.00;;;;;;5050999;28;20031;-72
2021/04/20 08:12:33;;;;;;;31.80;16.55;;;15.30;99.90;;;;;;5002132;22;20133;-89
2021/04/20 08:15:13;;;;;;;34.50;17.63;;;15.30;96.10;;;;;;4990311;28;20085;-88
2021/04/20 08:17:52;;;;;;;34.58;16.83;;;15.00;96.50;;;;;;4975619;28;20039;-88
2021/04/20 08:20:22;;;;;;;31.30;17.63;;;14.90;96.80;;;;;;4974545;28;20437;-88
2021/04/20 08:22:50;;;;;;;37.45;18.83;;;14.60;97.90;;;;;;4959824;28;20058;-89
2021/04/20 08:25:29;;;;;;;34.30;17.48;;;14.40;99.90;;;;;;4962728;28;20461;-88
2021/04/20 08:28:15;;;;;;;29.75;16.60;;;14.50;99.90;;;;;;4947733;28;20242;-91
2021/04/20 08:30:50;;;;;;;28.98;16.83;;;14.80;99.90;;;;;;5007576;28;20963;-90
2021/04/20 08:33:23;;;;;;;32.37;18.33;;;14.90;99.90;;;;;;4975328;28;20031;-88
2021/04/20 08:35:51;;;;;;;32.67;17.98;;;15.10;99.90;;;;;;4976407;28;20042;-88
2021/04/20 08:38:54;;;;;;;33.58;17.55;;;15.10;99.90;;;;;;4988531;28;20093;-89
2021/04/20 08:41:39;;;;;;;28.48;16.05;;;15.00;99.90;;;;;;4968865;28;20121;-89
2021/04/20 08:44:06;;;;;;;25.98;15.27;;;14.80;99.90;;;;;;4967841;28;20035;-88
2021/04/20 08:46:55;;;;;;;26.25;14.57;;;14.90;99.90;;;;;;4971929;28;20023;-88
2021/04/20 08:49:30;;;;;;;25.30;15.10;;;15.00;99.90;;;;;;4987148;28;20031;-87
2021/04/20 08:52:01;;;;;;;27.85;15.50;;;15.20;99.90;;;;;;4969927;28;20038;-89
2021/04/20 08:54:54;;;;;;;29.05;15.88;;;15.10;95.80;;;;;;4998143;28;20076;-87
2021/04/20 08:57:48;;;;;;;25.42;14.70;;;14.80;97.40;;;;;;4973368;28;20030;-87
2021/04/20 09:00:27;;;;;;;26.70;14.80;;;14.60;99.70;;;;;;4966148;28;20449;-89
2021/04/20 09:03:28;;;;;;;22.90;13.55;;;14.60;99.90;;;;;;4972028;28;20038;-90
2021/04/20 09:05:54;;;;;;;23.67;14.52;;;14.60;99.90;;;;;;4953682;28;20034;-88
2021/04/20 09:08:37;;;;;;;25.17;14.30;;;14.60;98.80;;;;;;4988585;28;20113;-89
2021/04/20 09:11:27;;;;;;;24.50;13.80;;;14.60;98.80;;;;;;4953423;28;20034;-88
2021/04/20 09:14:19;;;;;;;23.67;12.93;;;14.60;99.90;;;;;;4952022;28;20085;-90
2021/04/20 09:16:55;;;;;;;20.42;12.18;;;14.60;99.40;;;;;;4954808;28;20037;-90
2021/04/20 09:19:29;;;;;;;22.13;13.00;;;14.50;99.90;;;;;;4955372;28;20039;-88
2021/04/20 09:22:31;;;;;;;21.48;12.07;;;14.60;99.90;;;;;;4973265;28;20085;-88
2021/04/20 09:25:27;;;;;;;17.05;10.60;;;14.60;99.90;;;;;;4959343;28;20042;-90
2021/04/20 09:27:53;;;;;;;18.07;10.00;;;14.50;97.40;;;;;;4954095;28;20035;-88
2021/04/20 09:30:22;;;;;;;17.50;10.48;;;14.50;99.10;;;;;;4969344;28;20341;-89
2021/04/20 09:33:03;;;;;;;19.63;11.35;;;14.50;96.10;;;;;;4921140;28;20045;-89
2021/04/20 09:35:28;;;;;;;19.30;11.85;;;14.40;96.10;;;;;;4956502;28;20038;-90
2021/04/20 09:37:56;;;;;;;19.65;9.95;;;14.20;98.90;;;;;;4982287;28;20039;-89
2021/04/20 09:40:25;;;;;;;20.15;11.20;;;14.30;99.70;;;;;;4923229;28;20094;-90
2021/04/20 09:43:12;;;;;;;20.90;11.95;;;14.40;98.40;;;;;;4946276;28;20033;-89
2021/04/20 09:45:44;;;;;;;20.58;11.32;;;14.40;99.00;;;;;;4972025;28;20119;-91
2021/04/20 09:48:30;;;;;;;22.13;12.75;;;14.40;99.90;;;;;;5002481;28;20100;-89
2021/04/20 09:51:14;;;;;;;20.60;12.00;;;14.40;97.60;;;;;;4974518;28;20480;-87
2021/04/20 09:53:54;;;;;;;19.00;11.75;;;14.20;98.90;;;;;;4999076;28;20061;-89
2021/04/20 09:56:43;;;;;;;20.13;11.98;;;14.10;99.40;;;;;;4989152;28;20499;-89
2021/04/20 09:59:26;;;;;;;18.23;11.63;;;13.80;98.40;;;;;;4965445;28;20054;-90
2021/04/20 10:02:04;;;;;;;21.25;12.60;;;13.70;99.70;;;;;;4966374;28;20133;-89
2021/04/20 10:04:41;;;;;;;17.60;10.68;;;13.70;99.10;;;;;;4987606;28;20069;-89
2021/04/20 10:07:31;;;;;;;23.20;12.13;;;13.70;98.90;;;;;;4984725;28;20030;-90
2021/04/20 10:10:18;;;;;;;16.40;9.70;;;13.70;99.90;;;;;;4976277;28;20092;-89
2021/04/20 10:13:03;;;;;;;22.58;12.85;;;13.80;99.90;;;;;;4994538;28;20049;-89
2021/04/20 10:15:57;;;;;;;25.02;13.52;;;14.10;98.20;;;;;;4971890;28;20105;-89
2021/04/20 10:18:37;;;;;;;22.30;12.75;;;14.10;99.00;;;;;;4993211;28;20038;-89
2021/04/20 10:21:20;;;;;;;20.08;11.15;;;14.10;98.00;;;;;;4981478;28;20033;-89
2021/04/20 10:24:03;;;;;;;17.58;11.52;;;14.10;97.80;;;;;;5001816;28;20034;-89
2021/04/20 10:26:47;;;;;;;20.73;11.70;;;14.00;98.00;;;;;;4990442;28;20046;-87
2021/04/20 10:29:45;;;;;;;16.92;11.00;;;14.10;99.00;;;;;;4969652;28;20062;-89
2021/04/20 10:32:13;;;;;;;17.67;11.20;;;14.20;99.90;;;;;;4965521;28;20035;-89
2021/04/20 10:34:52;;;;;;;17.33;10.48;;;14.40;97.40;;;;;;4991551;28;20023;-88
2021/04/20 10:37:19;;;;;;;21.77;12.98;;;14.60;98.10;;;;;;4972943;28;20034;-90
2021/04/20 10:39:49;;;;;;;24.02;13.63;;;14.70;98.40;;;;;;4973489;28;20031;-89
2021/04/20 10:42:16;;;;;;;17.42;10.93;;;14.70;97.50;;;;;;4953862;28;20085;-89
2021/04/20 10:44:47;;;;;;;21.08;12.77;;;14.90;99.90;;;;;;4968774;28;20435;-89
2021/04/20 10:47:14;;;;;;;17.10;11.38;;;15.00;96.30;;;;;;4978896;28;20508;-90
2021/04/20 10:49:40;;;;;;;23.73;13.85;;;14.90;95.80;;;;;;4958178;28;20504;-89
2021/04/20 10:52:22;;;;;;;22.80;12.07;;;14.70;96.00;;;;;;4957740;28;20043;-92
2021/04/20 10:54:50;;;;;;;23.67;13.40;;;14.60;97.70;;;;;;4996472;28;20125;-89
2021/04/20 10:57:18;;;;;;;23.73;13.55;;;14.30;96.10;;;;;;4975721;28;20030;-89
2021/04/20 10:59:52;;;;;;;22.90;13.10;;;14.20;98.80;;;;;;4985746;28;20041;-89
2021/04/20 11:02:21;;;;;;;20.10;12.48;;;14.30;98.60;;;;;;4954681;28;20061;-89
2021/04/20 11:04:50;;;;;;;22.33;11.93;;;14.40;99.60;;;;;;4975985;28;20104;-90
2021/04/20 11:07:19;;;;;;;20.70;12.93;;;14.60;99.90;;;;;;4978393;28;20022;-90
2021/04/20 11:09:46;;;;;;;19.40;12.25;;;14.80;99.60;;;;;;4996270;28;20030;-89
2021/04/20 11:12:18;;;;;;;20.83;12.57;;;15.00;97.40;;;;;;4995678;28;20114;-90
2021/04/20 11:14:51;;;;;;;20.13;12.63;;;15.10;98.30;;;;;;4970387;28;20102;-90
2021/04/20 11:17:42;;;;;;;19.80;12.40;;;15.20;97.90;;;;;;4981776;28;20512;-89
2021/04/20 11:20:38;;;;;;;18.50;11.30;;;15.20;98.80;;;;;;4992169;28;20061;-88
2021/04/20 11:23:10;;;;;;;17.05;11.00;;;15.30;98.30;;;;;;4971824;28;20034;-89
2021/04/20 11:25:41;;;;;;;17.65;10.20;;;15.40;96.40;;;;;;4995468;28;20030;-90
2021/04/20 11:28:14;;;;;;;15.93;10.15;;;15.40;95.50;;;;;;4963773;28;20042;-90
2021/04/20 11:30:51;;;;;;;19.92;10.20;;;15.30;95.80;;;;;;4977362;28;20034;-89
2021/04/20 11:33:26;;;;;;;16.85;10.20;;;15.20;96.50;;;;;;4962603;28;20581;-88
2021/04/20 11:35:54;;;;;;;15.60;8.88;;;15.20;97.10;;;;;;4973340;28;20080;-88
2021/04/20 11:38:19;;;;;;;14.13;8.88;;;15.10;95.80;;;;;;5005661;28;20041;-89
2021/04/20 11:40:58;;;;;;;15.80;9.25;;;15.10;97.60;;;;;;4958382;28;20122;-89
2021/04/20 11:43:26;;;;;;;14.35;8.65;;;15.00;97.90;;;;;;4985140;28;20034;-89
2021/04/20 11:45:55;;;;;;;15.52;9.52;;;14.90;97.60;;;;;;4985723;28;20041;-91
2021/04/20 11:48:35;;;;;;;15.15;9.65;;;14.90;97.40;;;;;;4993400;28;20037;-89
2021/04/20 11:51:05;;;;;;;15.18;9.75;;;14.70;97.80;;;;;;4981760;28;20505;-89
2021/04/20 11:53:40;;;;;;;15.90;10.68;;;14.40;99.90;;;;;;4986596;28;20025;-89
2021/04/20 11:56:07;;;;;;;18.15;10.85;;;14.00;99.90;;;;;;4971081;28;20413;-88
2021/04/20 11:58:37;;;;;;;19.67;11.65;;;13.60;99.90;;;;;;4977377;28;20030;-89
2021/04/20 12:01:15;;;;;;;20.80;11.98;;;13.00;99.90;;;;;;4999549;28;20497;-92
2021/04/20 12:03:54;;;;;;;20.65;11.35;;;12.50;99.90;;;;;;4975646;28;20038;-89
2021/04/20 12:06:24;;;;;;;15.30;9.60;;;12.10;99.90;;;;;;4975418;28;20034;-87
2021/04/20 12:08:55;;;;;;;17.10;9.15;;;11.80;99.90;;;;;;4976862;28;20037;-88
2021/04/20 12:11:26;;;;;;;16.23;9.40;;;11.50;99.90;;;;;;4957190;28;20035;-90
2021/04/20 12:13:53;;;;;;;14.48;8.70;;;11.40;99.90;;;;;;4987376;28;20097;-89
2021/04/20 12:16:20;;;;;;;12.60;8.30;;;11.20;99.90;;;;;;4975470;28;20042;-90
2021/04/20 12:18:48;;;;;;;13.35;8.05;;;11.00;99.90;;;;;;4955290;28;20489;-89
2021/04/20 12:21:26;;;;;;;15.65;8.32;;;10.80;99.90;;;;;;4984408;28;20050;-89
2021/04/20 12:23:58;;;;;;;11.57;7.63;;;10.50;99.90;;;;;;4979085;28;20026;-89
2021/04/20 12:26:27;;;;;;;14.38;8.32;;;10.30;99.90;;;;;;4975199;28;20112;-90
2021/04/20 12:28:56;;;;;;;12.02;7.68;;;10.20;99.90;;;;;;4991678;28;20027;-90
2021/04/20 12:31:30;;;;;;;12.13;7.50;;;10.00;99.90;;;;;;4989816;28;20126;-88
2021/04/20 12:33:56;;;;;;;12.43;7.68;;;9.90;99.90;;;;;;4974393;28;20120;-90
2021/04/20 12:36:49;;;;;;;13.93;8.13;;;9.80;99.90;;;;;;4958612;28;20050;-90
2021/04/20 12:39:47;;;;;;;13.10;8.25;;;9.70;99.90;;;;;;4975827;28;20045;-90
2021/04/20 12:42:16;;;;;;;15.15;8.68;;;9.70;99.90;;;;;;4968044;28;20037;-89
2021/04/20 12:44:56;;;;;;;14.40;7.97;;;9.70;99.90;;;;;;4959071;28;20081;-88
2021/04/20 12:47:31;;;;;;;12.50;8.07;;;9.70;99.90;;;;;;4974651;28;20022;-88
2021/04/20 12:50:00;;;;;;;13.13;9.32;;;9.70;99.90;;;;;;4958603;28;20031;-89
2021/04/20 12:52:27;;;;;;;14.18;8.65;;;9.80;99.90;;;;;;4954846;28;20064;-89
2021/04/20 12:55:05;;;;;;;13.30;8.48;;;9.90;99.90;;;;;;4970872;28;20038;-89
2021/04/20 12:57:37;;;;;;;17.38;9.55;;;10.00;99.90;;;;;;4972613;28;20503;-88
2021/04/20 13:00:29;;;;;;;12.82;8.10;;;10.10;99.90;;;;;;4958697;28;20066;-88
2021/04/20 13:02:58;;;;;;;14.35;8.82;;;10.10;99.90;;;;;;4973727;28;20030;-89
2021/04/20 13:05:29;;;;;;;14.10;8.98;;;10.20;99.90;;;;;;4963288;28;20058;-89
2021/04/20 13:08:02;;;;;;;13.63;8.73;;;10.10;99.90;;;;;;4973581;28;20044;-89